Terminal Aerodrome Forecast
Issued by NWS

Current Version | Previous Version | Text Only | Print | Product List | Glossary On
Versions: 1 2 3 4 5 6 7 8 9 10 11 12 13 14 15
000
FTUS43 KMQT 251700
TAFIWD
TAF
KIWD 251722Z 2518/2618 19012KT P6SM -SHRA BKN020
      TEMPO 2519/2523 SCT020 OVC035
     FM260600 23005KT 2SM BR BKN006
     FM261200 27005KT P6SM BKN015
     FM261400 28009KT P6SM SCT025
      AMD NOT SKED=

USA.gov is the U.S. government's official web portal to all federal, state and local government web resources and services.